Time;durP1;ratioP1;P1;durP2;ratioP2;P2;SDS_P1;SDS_P2;PMS_P1;PMS_P2;Temp;Humidity;BMP_temperature;BMP_pressure;BME280_temperature;BME280_humidity;BME280_pressure;Samples;Min_cycle;Max_cycle;Signal;HPM_P1;HPM_P2
2022/08/26 00:01:10;;;;;;;2.17;0.43;;;;;;;-140.72;82.69;52238.69;4953185;28;20441;-71
2022/08/26 00:03:35;;;;;;;3.13;0.73;;;;;;;-140.72;83.67;52258.97;4953576;28;20034;-71
2022/08/26 00:06:01;;;;;;;2.95;0.50;;;;;;;-140.72;83.54;52261.00;4952801;28;20028;-72
2022/08/26 00:08:26;;;;;;;0.85;0.40;;;;;;;-140.72;83.35;52244.78;4953397;28;20086;-71
2022/08/26 00:10:51;;;;;;;2.33;0.52;;;;;;;-140.72;82.17;52248.81;4952869;28;20035;-70
2022/08/26 00:13:17;;;;;;;0.40;0.25;;;;;;;-140.72;82.39;52240.72;4954740;28;20110;-70
2022/08/26 00:15:45;;;;;;;0.90;0.52;;;;;;;-140.72;81.41;52275.19;4953134;28;20480;-71
2022/08/26 00:18:11;;;;;;;0.88;0.38;;;;;;;-140.72;82.46;52261.00;4953099;28;20444;-71
2022/08/26 00:20:37;;;;;;;1.00;0.30;;;;;;;-140.72;82.12;52254.91;4953768;28;20066;-72
2022/08/26 00:23:02;;;;;;;3.60;0.38;;;;;;;-140.72;82.59;52248.81;4954680;28;20031;-72
2022/08/26 00:25:28;;;;;;;2.60;0.73;;;;;;;-140.72;82.06;52246.78;4954414;28;20440;-72
2022/08/26 00:27:54;;;;;;;2.42;0.20;;;;;;;-140.72;82.81;52246.78;4954204;28;20078;-71
2022/08/26 00:30:24;;;;;;;2.58;0.63;;;;;;;-140.72;83.43;52269.13;4953921;28;20051;-73
2022/08/26 00:32:50;;;;;;;0.75;0.47;;;;;;;-140.72;86.63;52295.50;4954241;28;20031;-71
2022/08/26 00:35:15;;;;;;;1.25;0.40;;;;;;;-140.72;89.90;52279.25;4953254;28;20095;-71
2022/08/26 00:37:41;;;;;;;1.10;0.30;;;;;;;-140.72;96.04;52281.28;4952089;28;20074;-73
2022/08/26 00:40:13;;;;;;;3.78;0.40;;;;;;;-140.72;95.80;52256.94;4952061;28;20075;-73
2022/08/26 00:42:38;;;;;;;0.98;0.75;;;;;;;-140.72;97.83;52295.50;4952198;28;20464;-73
2022/08/26 00:45:04;;;;;;;4.07;0.50;;;;;;;-140.72;99.03;52275.19;4952832;28;20139;-71
2022/08/26 00:47:36;;;;;;;0.55;0.40;;;;;;;-140.72;98.99;52240.72;4952531;28;20074;-72
2022/08/26 00:50:06;;;;;;;0.60;0.30;;;;;;;-140.72;99.23;52252.88;4950679;28;20031;-71
2022/08/26 00:52:33;;;;;;;0.68;0.30;;;;;;;-140.72;100.00;52269.13;4947447;28;20026;-71
2022/08/26 00:55:03;;;;;;;1.52;0.30;;;;;;;-140.72;100.00;52232.59;4950677;28;20401;-70
2022/08/26 00:57:31;;;;;;;0.95;0.68;;;;;;;-140.72;100.00;52295.50;4951369;28;20453;-70
2022/08/26 01:00:00;;;;;;;0.20;0.15;;;;;;;-140.72;100.00;52258.97;4952424;28;20628;-71
2022/08/26 01:02:25;;;;;;;2.17;0.47;;;;;;;-140.72;100.00;52252.88;4951586;28;20086;-71
2022/08/26 01:04:57;;;;;;;1.17;0.40;;;;;;;-140.72;100.00;52281.28;4951887;28;20024;-72
2022/08/26 01:07:29;;;;;;;1.90;0.40;;;;;;;-140.72;100.00;52271.16;4950173;28;20106;-70
2022/08/26 01:09:56;;;;;;;1.27;0.40;;;;;;;-140.72;100.00;52285.34;4948968;29;20477;-72
2022/08/26 01:12:23;;;;;;;0.55;0.30;;;;;;;-140.72;100.00;52307.66;4952069;28;20038;-70
2022/08/26 01:14:49;;;;;;;0.47;0.32;;;;;;;-140.72;100.00;52281.28;4950542;28;20341;-70
2022/08/26 01:17:15;;;;;;;1.65;0.38;;;;;;;-140.72;100.00;52269.13;4951596;28;20031;-70
2022/08/26 01:19:44;;;;;;;0.93;0.30;;;;;;;-140.72;100.00;52299.56;4952068;28;20031;-70
2022/08/26 01:22:26;;;;;;;2.60;0.40;;;;;;;-140.72;100.00;52273.19;4951200;28;20027;-70
2022/08/26 01:24:51;;;;;;;2.83;0.50;;;;;;;-140.72;100.00;52252.88;4951488;28;20165;-70
2022/08/26 01:27:19;;;;;;;0.98;0.38;;;;;;;-140.72;100.00;52303.59;4951082;28;20054;-70
2022/08/26 01:29:47;;;;;;;2.15;0.40;;;;;;;-140.72;100.00;52291.44;4952281;28;20035;-70
2022/08/26 01:32:17;;;;;;;0.82;0.40;;;;;;;-140.72;100.00;52293.47;4951523;28;20446;-70
2022/08/26 01:34:45;;;;;;;;;;;;;;;-140.72;100.00;52261.00;4952842;28;20048;-71
2022/08/26 01:37:18;;;;;;;2.25;0.70;;;;;;;-140.72;100.00;52289.41;4951579;28;19918;-70
2022/08/26 01:39:47;;;;;;;0.93;0.25;;;;;;;-140.72;100.00;52330.00;4950477;28;20035;-71
2022/08/26 01:42:14;;;;;;;1.13;0.25;;;;;;;-140.72;100.00;52283.31;4953605;28;20423;-71
2022/08/26 01:44:54;;;;;;;1.08;0.32;;;;;;;-140.72;100.00;52275.19;4951650;28;20027;-69
2022/08/26 01:47:22;;;;;;;0.73;0.20;;;;;;;-140.72;100.00;52273.19;4953446;28;20065;-70
2022/08/26 01:49:51;;;;;;;1.02;0.43;;;;;;;-140.72;100.00;52289.41;4953165;28;20059;-70
2022/08/26 01:52:22;;;;;;;0.95;0.38;;;;;;;-140.72;100.00;52321.88;4950391;28;20472;-69
2022/08/26 01:54:48;;;;;;;1.13;0.50;;;;;;;-140.72;100.00;52289.41;4951676;28;20109;-69
2022/08/26 01:57:16;;;;;;;2.25;0.35;;;;;;;-140.72;100.00;52265.06;4951617;28;20058;-70
2022/08/26 01:59:41;;;;;;;0.55;0.38;;;;;;;-140.72;100.00;52287.38;4951410;28;20107;-72
2022/08/26 02:02:07;;;;;;;0.82;0.40;;;;;;;-140.72;100.00;52287.38;4951625;28;20163;-71
2022/08/26 02:04:38;;;;;;;0.50;0.30;;;;;;;-140.72;100.00;52291.44;4952203;28;20031;-71
2022/08/26 02:07:07;;;;;;;1.17;0.35;;;;;;;-140.72;100.00;52327.97;4949640;28;20027;-70
2022/08/26 02:09:37;;;;;;;0.43;0.30;;;;;;;-140.72;100.00;52297.53;4951711;28;20035;-71
2022/08/26 02:12:02;;;;;;;1.15;0.30;;;;;;;-140.72;100.00;52295.50;4951291;28;20569;-71
2022/08/26 02:14:32;;;;;;;0.85;0.38;;;;;;;-140.72;100.00;52293.47;4956376;28;20106;-70
2022/08/26 02:16:58;;;;;;;1.20;0.50;;;;;;;-140.72;100.00;52295.50;4955733;28;20159;-70
2022/08/26 02:19:30;;;;;;;1.48;0.30;;;;;;;-140.72;100.00;52293.47;4958127;28;20118;-70
2022/08/26 02:21:59;;;;;;;2.55;0.35;;;;;;;-140.72;100.00;52305.63;4952318;28;20085;-70
2022/08/26 02:24:27;;;;;;;1.30;0.50;;;;;;;-140.72;100.00;52297.53;4955177;28;20138;-70
2022/08/26 02:26:54;;;;;;;0.55;0.30;;;;;;;-140.72;100.00;52307.66;4967237;28;20121;-71
2022/08/26 02:29:24;;;;;;;1.27;0.47;;;;;;;-140.72;99.20;52313.75;4958731;28;20031;-70
2022/08/26 02:31:50;;;;;;;1.33;0.50;;;;;;;-140.72;99.04;52295.50;4959351;28;20054;-70
2022/08/26 02:34:21;;;;;;;2.67;0.73;;;;;;;-140.72;96.98;52307.66;4958003;28;20037;-69
2022/08/26 02:36:46;;;;;;;1.73;0.50;;;;;;;-140.72;97.36;52261.00;4958871;28;20105;-69
2022/08/26 02:39:12;;;;;;;2.13;0.45;;;;;;;-140.72;97.53;52301.59;4952485;28;20035;-71
2022/08/26 02:41:37;;;;;;;1.58;0.60;;;;;;;-140.72;97.03;52289.41;4953783;28;20042;-70
2022/08/26 02:44:05;;;;;;;2.33;0.68;;;;;;;-140.72;95.09;52301.59;4955297;28;20382;-70
2022/08/26 02:46:30;;;;;;;2.50;0.30;;;;;;;-140.72;94.03;52287.38;4951139;28;20085;-70
2022/08/26 02:48:57;;;;;;;3.03;0.75;;;;;;;-140.72;94.20;52297.53;4950081;28;20317;-70
2022/08/26 02:51:22;;;;;;;1.20;0.25;;;;;;;-140.72;95.85;52299.56;4953364;28;20065;-70
2022/08/26 02:53:48;;;;;;;0.45;0.20;;;;;;;-140.72;97.30;52325.94;4956500;28;20055;-70
2022/08/26 02:56:13;;;;;;;1.58;0.30;;;;;;;-140.72;98.94;52336.06;4963961;28;20428;-70
2022/08/26 02:58:38;;;;;;;2.75;0.32;;;;;;;-140.72;100.00;52297.53;4954832;28;20027;-70
2022/08/26 03:01:04;;;;;;;3.92;0.55;;;;;;;-140.72;100.00;52313.75;4951847;28;20027;-70
2022/08/26 03:03:30;;;;;;;0.60;0.30;;;;;;;-140.72;100.00;52323.91;4954139;28;20038;-70
2022/08/26 03:05:56;;;;;;;1.50;0.50;;;;;;;-140.72;100.00;52325.94;4959952;28;20074;-69
2022/08/26 03:08:22;;;;;;;1.60;0.52;;;;;;;-140.72;100.00;52297.53;4958947;28;20383;-70
2022/08/26 03:10:47;;;;;;;2.70;0.32;;;;;;;-140.72;100.00;52285.34;4955163;28;20035;-69
2022/08/26 03:13:13;;;;;;;1.92;0.40;;;;;;;-140.72;99.41;52336.06;4954881;28;20399;-70
2022/08/26 03:15:39;;;;;;;1.17;0.30;;;;;;;-140.72;98.44;52325.94;4964456;28;20055;-70
2022/08/26 03:18:05;;;;;;;0.70;0.40;;;;;;;-140.72;96.43;52332.03;4962076;28;20042;-69
2022/08/26 03:20:31;;;;;;;1.98;0.55;;;;;;;-140.72;94.14;52332.03;4970148;28;20078;-71
2022/08/26 03:22:57;;;;;;;1.35;0.25;;;;;;;-140.72;94.34;52301.59;4959108;28;20123;-70
2022/08/26 03:25:24;;;;;;;5.07;0.75;;;;;;;-140.72;95.45;52321.88;4955296;28;20117;-70
2022/08/26 03:27:49;;;;;;;0.57;0.15;;;;;;;-140.72;96.65;52325.94;4963573;28;20055;-70
2022/08/26 03:33:00;;;;;;;0.50;0.20;;;;;;;-140.72;97.72;52325.94;4956271;28;20219;-69
2022/08/26 03:35:25;;;;;;;4.80;0.50;;;;;;;-140.72;99.35;52285.34;4962314;28;20047;-70
2022/08/26 03:37:52;;;;;;;0.50;0.30;;;;;;;-140.72;96.97;52330.00;4958450;28;20440;-70
2022/08/26 03:40:20;;;;;;;0.40;0.20;;;;;;;-140.72;96.97;52338.09;4944525;28;20464;-70
2022/08/26 03:42:46;;;;;;;2.60;0.40;;;;;;;-140.72;98.85;52340.13;4946046;28;20027;-70
2022/08/26 03:45:13;;;;;;;2.65;0.57;;;;;;;-140.72;98.53;52325.94;4957453;28;20035;-69
2022/08/26 03:47:39;;;;;;;0.98;0.47;;;;;;;-140.72;96.96;52327.97;4955503;28;20019;-70
2022/08/26 03:50:06;;;;;;;2.38;0.85;;;;;;;-140.72;98.70;52313.75;4955013;28;20167;-70
2022/08/26 03:52:32;;;;;;;1.65;0.32;;;;;;;-140.72;100.00;52309.69;4954719;28;20023;-71
2022/08/26 03:54:57;;;;;;;2.10;0.77;;;;;;;-140.72;100.00;52330.00;4955172;28;20395;-71
2022/08/26 03:57:23;;;;;;;0.93;0.30;;;;;;;-140.72;100.00;52342.16;4954991;28;20079;-70
2022/08/26 03:59:48;;;;;;;0.65;0.47;;;;;;;-140.72;100.00;52350.28;4954158;28;20106;-71
2022/08/26 04:02:14;;;;;;;1.00;0.20;;;;;;;-140.72;100.00;52350.28;4954951;28;20037;-70
2022/08/26 04:04:39;;;;;;;0.63;0.20;;;;;;;-140.72;100.00;52297.53;4951399;28;20035;-70
2022/08/26 04:07:05;;;;;;;1.63;0.57;;;;;;;-140.72;100.00;52378.69;4945363;28;20058;-71
2022/08/26 04:09:30;;;;;;;0.30;0.20;;;;;;;-140.72;100.00;52319.84;4954752;28;20034;-69
2022/08/26 04:11:57;;;;;;;2.20;0.20;;;;;;;-140.72;100.00;52313.75;4945411;28;20024;-69
2022/08/26 04:14:25;;;;;;;1.20;0.20;;;;;;;-140.72;100.00;52325.94;4951835;29;20114;-71
2022/08/26 04:16:52;;;;;;;0.40;0.30;;;;;;;-140.72;100.00;52297.53;4955153;28;20058;-69
2022/08/26 04:19:18;;;;;;;0.70;0.25;;;;;;;-140.72;100.00;52338.09;4951187;28;20035;-70
2022/08/26 04:21:46;;;;;;;1.05;0.30;;;;;;;-140.72;100.00;52330.00;4954441;28;20031;-70
2022/08/26 04:24:14;;;;;;;0.73;0.40;;;;;;;-140.72;100.00;52325.94;4951022;28;20101;-70
2022/08/26 04:26:40;;;;;;;0.82;0.60;;;;;;;-140.72;100.00;52336.06;4953635;28;20027;-70
2022/08/26 04:29:09;;;;;;;1.58;0.40;;;;;;;-140.72;100.00;52382.75;4951873;28;20050;-70
2022/08/26 04:31:36;;;;;;;1.85;0.50;;;;;;;-140.72;100.00;52346.22;4954466;28;20027;-69
2022/08/26 04:34:03;;;;;;;1.63;0.20;;;;;;;-140.72;100.00;52338.09;4953976;28;20511;-69
2022/08/26 04:36:28;;;;;;;1.50;0.65;;;;;;;-140.72;100.00;52348.25;4953573;28;20047;-70
2022/08/26 04:38:54;;;;;;;0.52;0.35;;;;;;;-140.72;100.00;52338.09;4955035;28;20283;-77
2022/08/26 04:41:20;;;;;;;0.40;0.30;;;;;;;-140.72;100.00;52352.31;4954253;28;20027;-74
2022/08/26 04:43:47;;;;;;;0.77;0.38;;;;;;;-140.72;100.00;52325.94;4955009;28;20392;-76
2022/08/26 04:46:16;;;;;;;0.30;0.20;;;;;;;-140.72;100.00;52340.13;4954007;28;20062;-74
2022/08/26 04:48:42;;;;;;;2.53;0.20;;;;;;;-140.72;100.00;52277.22;4954232;28;20053;-75
2022/08/26 04:51:08;;;;;;;2.67;0.47;;;;;;;-140.72;100.00;52352.31;4954121;28;20527;-75
2022/08/26 04:53:33;;;;;;;5.43;0.77;;;;;;;-140.72;100.00;52307.66;4954745;28;20115;-75
2022/08/26 04:55:59;;;;;;;0.80;0.30;;;;;;;-140.72;100.00;52305.63;4953766;28;20110;-75
2022/08/26 04:58:25;;;;;;;0.55;0.10;;;;;;;-140.72;98.36;52256.94;4954164;28;20027;-77
2022/08/26 05:00:52;;;;;;;3.40;0.40;;;;;;;-140.72;94.65;52338.09;4954263;28;20035;-75
2022/08/26 05:03:18;;;;;;;0.38;0.17;;;;;;;-140.72;90.57;52321.88;4953709;28;20034;-76
2022/08/26 05:05:46;;;;;;;1.45;0.30;;;;;;;-140.72;88.55;52281.28;4954342;28;20031;-79
2022/08/26 05:08:13;;;;;;;0.80;0.30;;;;;;;-140.72;87.78;52338.09;4953101;28;20145;-76
2022/08/26 05:10:47;;;;;;;2.05;0.70;;;;;;;-140.72;86.07;52334.03;4950150;28;20027;-76
2022/08/26 05:13:15;;;;;;;1.65;0.38;;;;;;;-140.72;83.15;52356.38;4953964;28;20567;-76
2022/08/26 05:15:41;;;;;;;1.48;0.25;;;;;;;-140.72;80.89;52327.97;4953648;28;20118;-76
2022/08/26 05:18:06;;;;;;;1.80;0.40;;;;;;;-140.72;79.26;52327.97;4953793;28;20503;-75
2022/08/26 05:20:37;;;;;;;1.38;0.30;;;;;;;-140.72;77.57;52293.47;4952440;28;20037;-74
2022/08/26 05:23:05;;;;;;;1.63;0.50;;;;;;;-140.72;78.80;52313.75;4950327;28;20193;-75
2022/08/26 05:25:30;;;;;;;3.25;0.57;;;;;;;-140.72;77.59;52279.25;4953498;28;20113;-75
2022/08/26 05:27:56;;;;;;;1.25;0.50;;;;;;;-140.72;75.43;52313.75;4954715;28;20043;-75
2022/08/26 05:30:23;;;;;;;1.60;0.55;;;;;;;-140.72;73.31;52293.47;4952488;28;20102;-74
2022/08/26 05:32:49;;;;;;;3.67;0.57;;;;;;;-140.72;73.12;52315.78;4954098;28;20027;-75
2022/08/26 05:35:16;;;;;;;1.60;0.45;;;;;;;-140.72;70.75;52307.66;4953126;28;20031;-75
2022/08/26 05:37:42;;;;;;;0.73;0.22;;;;;;;-140.72;71.92;52293.47;4952336;28;20070;-74
2022/08/26 05:40:07;;;;;;;1.80;0.50;;;;;;;-140.72;68.78;52350.28;4953110;28;20528;-74
2022/08/26 05:42:33;;;;;;;1.95;0.60;;;;;;;-140.72;65.15;52291.44;4953301;28;20027;-71
2022/08/26 05:44:59;;;;;;;3.20;0.47;;;;;;;-140.72;64.91;52301.59;4951883;28;20036;-73
2022/08/26 05:47:25;;;;;;;4.97;0.57;;;;;;;-140.72;63.59;52346.22;4953147;28;20466;-72
2022/08/26 05:49:51;;;;;;;1.23;0.47;;;;;;;-140.72;62.80;52297.53;4953071;28;20492;-73
2022/08/26 05:52:20;;;;;;;2.60;0.60;;;;;;;-140.72;61.83;52305.63;4951726;28;20074;-73
2022/08/26 05:54:46;;;;;;;1.85;0.40;;;;;;;-140.72;59.37;52277.22;4952824;28;20491;-73
2022/08/26 05:57:12;;;;;;;1.77;0.73;;;;;;;-140.72;55.24;52323.91;4952034;28;20023;-72
2022/08/26 05:59:38;;;;;;;0.40;0.22;;;;;;;-140.72;52.49;52309.69;4952696;28;20039;-73
2022/08/26 06:02:10;;;;;;;1.08;0.20;;;;;;;-140.72;50.63;52327.97;4952566;28;20034;-71
2022/08/26 06:04:35;;;;;;;3.33;0.73;;;;;;;-140.72;48.01;52336.06;4949536;28;20058;-72
2022/08/26 06:07:01;;;;;;;2.17;0.75;;;;;;;-140.72;49.48;52321.88;4942130;29;20113;-74
2022/08/26 06:09:26;;;;;;;0.75;0.52;;;;;;;-140.72;45.71;52327.97;4952662;28;20035;-72
2022/08/26 06:11:52;;;;;;;2.92;0.40;;;;;;;-140.72;42.97;52309.69;4952359;28;20024;-74
2022/08/26 06:14:17;;;;;;;1.65;0.45;;;;;;;-140.72;41.17;52315.78;4952632;28;20094;-72
2022/08/26 06:16:43;;;;;;;0.20;0.10;;;;;;;-140.72;37.35;52330.00;4949667;28;20373;-72
2022/08/26 06:19:11;;;;;;;0.45;0.20;;;;;;;-140.72;37.90;52313.75;4947549;28;20070;-73
2022/08/26 06:21:38;;;;;;;1.25;0.32;;;;;;;-140.72;35.72;52281.28;4954173;28;20015;-72
2022/08/26 06:27:00;;;;;;;1.85;0.65;;;;;;;-140.72;35.29;52289.41;4949949;29;20381;-71
2022/08/26 06:29:27;;;;;;;0.30;0.10;;;;;;;-140.72;30.07;52342.16;4950857;28;20053;-74
2022/08/26 06:31:54;;;;;;;1.58;0.40;;;;;;;-140.72;26.24;52315.78;4950557;28;20027;-72
2022/08/26 06:34:19;;;;;;;1.00;0.13;;;;;;;-140.72;25.56;52307.66;4950294;28;20077;-74
2022/08/26 06:36:46;;;;;;;0.30;0.17;;;;;;;-140.72;23.25;52313.75;4950593;28;20531;-73
2022/08/26 06:39:14;;;;;;;3.00;0.40;;;;;;;-140.72;22.84;52352.31;4954187;28;20042;-71
2022/08/26 06:41:42;;;;;;;1.30;0.55;;;;;;;-140.72;19.26;52301.59;4951096;28;20038;-73
2022/08/26 06:44:08;;;;;;;1.50;0.30;;;;;;;-140.72;17.56;52281.28;4949800;28;20042;-74
2022/08/26 06:46:33;;;;;;;1.45;0.45;;;;;;;-140.72;17.21;52263.03;4952560;28;20027;-73
2022/08/26 06:48:59;;;;;;;1.27;0.50;;;;;;;-140.72;18.58;52281.28;4954574;28;20515;-73
2022/08/26 06:51:30;;;;;;;0.95;0.30;;;;;;;-140.72;16.62;52307.66;4959285;28;20503;-72
2022/08/26 06:53:59;;;;;;;2.08;0.28;;;;;;;-140.72;18.02;52258.97;4966894;28;20495;-71
2022/08/26 06:56:32;;;;;;;0.98;0.32;;;;;;;-140.72;19.06;52301.59;4950197;28;20042;-73
2022/08/26 06:58:58;;;;;;;2.65;0.22;;;;;;;-140.72;18.95;52332.03;4949833;28;20114;-75
2022/08/26 07:01:29;;;;;;;0.80;0.20;;;;;;;-140.72;20.91;52311.72;4949648;28;20122;-72
2022/08/26 07:03:58;;;;;;;1.20;0.30;;;;;;;-140.72;17.48;52281.28;4950692;28;20122;-74
2022/08/26 07:06:27;;;;;;;0.85;0.20;;;;;;;-140.72;13.16;52273.19;4950454;28;20089;-75
2022/08/26 07:09:00;;;;;;;1.85;0.35;;;;;;;-140.72;9.97;52307.66;4950412;28;20063;-74
2022/08/26 07:11:27;;;;;;;1.33;0.30;;;;;;;-140.72;8.63;52317.81;4950611;28;20027;-73
2022/08/26 07:13:52;;;;;;;1.17;0.28;;;;;;;-140.72;9.32;52344.19;4952232;29;20027;-73
2022/08/26 07:16:18;;;;;;;0.45;0.10;;;;;;;-140.72;17.34;52321.88;4950692;28;20475;-73
2022/08/26 07:18:44;;;;;;;1.33;0.15;;;;;;;-140.72;26.39;52301.59;4952054;28;20023;-73
2022/08/26 07:21:13;;;;;;;0.73;0.20;;;;;;;-140.72;33.03;52317.81;4951418;28;20325;-72
2022/08/26 07:23:39;;;;;;;1.10;0.52;;;;;;;-140.72;35.14;52321.88;4952429;28;20448;-76
2022/08/26 07:26:11;;;;;;;0.98;0.20;;;;;;;-140.72;37.58;52297.53;4946041;28;20071;-81
2022/08/26 07:28:38;;;;;;;0.40;0.22;;;;;;;-140.72;40.58;52342.16;4949806;28;20103;-76
2022/08/26 07:31:14;;;;;;;1.27;0.43;;;;;;;-140.72;42.47;52315.78;4951515;28;20031;-80
2022/08/26 07:33:41;;;;;;;0.80;0.35;;;;;;;-140.72;39.51;52323.91;4950027;28;20020;-79
2022/08/26 07:36:08;;;;;;;2.50;0.57;;;;;;;-140.72;35.19;52285.34;4950375;28;20027;-76
2022/08/26 07:38:35;;;;;;;1.70;0.47;;;;;;;-140.72;35.30;52315.78;4951381;28;20509;-78
2022/08/26 07:41:01;;;;;;;1.30;0.38;;;;;;;-140.72;33.48;52334.03;4950770;28;20460;-76
2022/08/26 07:43:29;;;;;;;3.35;0.52;;;;;;;-140.72;26.26;52265.06;4946786;28;20039;-77
2022/08/26 07:45:55;;;;;;;1.40;0.40;;;;;;;-140.72;21.94;52325.94;4946170;29;20027;-74
2022/08/26 07:48:21;;;;;;;1.92;0.40;;;;;;;-140.72;16.49;52279.25;4951385;28;20494;-76
2022/08/26 07:50:46;;;;;;;0.90;0.20;;;;;;;-140.72;10.30;52342.16;4949615;28;20035;-77
2022/08/26 07:53:13;;;;;;;1.08;0.20;;;;;;;-140.72;2.64;52285.34;4948510;28;20381;-76
2022/08/26 07:55:39;;;;;;;3.30;0.25;;;;;;;-140.72;0.00;52307.66;4951702;28;20113;-77
2022/08/26 07:58:04;;;;;;;1.15;0.32;;;;;;;-140.72;0.00;52301.59;4950148;28;20071;-75
2022/08/26 08:00:31;;;;;;;0.22;0.10;;;;;;;-140.72;0.00;52269.13;4955204;28;20042;-75
2022/08/26 08:03:02;;;;;;;1.35;0.20;;;;;;;-140.72;0.00;52246.78;4953771;28;20049;-76
2022/08/26 08:05:31;;;;;;;1.15;0.45;;;;;;;-140.72;0.00;52258.97;4954488;28;20031;-78
2022/08/26 08:08:00;;;;;;;0.95;0.10;;;;;;;-140.72;0.00;52242.75;4954790;28;20055;-76
2022/08/26 08:10:27;;;;;;;0.83;0.27;;;;;;;-140.72;0.00;52277.22;4954416;28;20035;-77
2022/08/26 08:12:53;;;;;;;0.55;0.20;;;;;;;-140.72;0.00;52275.19;4954288;28;20041;-75
2022/08/26 08:15:25;;;;;;;1.70;0.63;;;;;;;-140.72;0.00;52277.22;4954996;28;20071;-76
2022/08/26 08:17:51;;;;;;;1.83;0.20;;;;;;;-140.72;0.00;52244.78;4950532;28;20038;-78
2022/08/26 08:20:18;;;;;;;0.30;0.15;;;;;;;-140.72;0.00;52271.16;4954979;28;20027;-76
2022/08/26 08:22:45;;;;;;;2.20;0.40;;;;;;;-140.72;0.00;52261.00;4953665;28;20031;-76
2022/08/26 08:25:20;;;;;;;0.20;0.10;;;;;;;-140.72;0.00;52230.56;4954494;28;20040;-79
2022/08/26 08:27:47;;;;;;;1.05;0.20;;;;;;;-140.72;0.00;52277.22;4954598;28;20071;-76
2022/08/26 08:30:14;;;;;;;0.50;0.20;;;;;;;-140.72;0.00;52261.00;4953356;28;20031;-79
2022/08/26 08:32:43;;;;;;;2.10;0.10;;;;;;;-140.72;0.00;52267.09;4956712;28;20446;-76
2022/08/26 08:35:12;;;;;;;0.47;0.10;;;;;;;-140.72;0.00;52224.47;4954911;28;20043;-80
2022/08/26 08:37:37;;;;;;;2.50;0.38;;;;;;;-140.72;0.00;52291.44;4943686;29;20051;-75
2022/08/26 08:40:08;;;;;;;0.73;0.20;;;;;;;-140.72;0.00;52258.97;4953577;28;20082;-76
2022/08/26 08:42:49;;;;;;;0.90;0.40;;;;;;;-140.72;0.00;52220.41;4953907;28;20604;-77
2022/08/26 08:45:24;;;;;;;1.20;0.30;;;;;;;-140.72;0.00;52261.00;4953908;28;20516;-76
2022/08/26 08:47:54;;;;;;;1.33;0.38;;;;;;;-140.72;0.00;52265.06;4952524;28;20501;-75
2022/08/26 08:50:28;;;;;;;;;;;;;;;-140.72;0.00;52228.53;4954052;28;20043;-76
2022/08/26 08:53:13;;;;;;;0.63;0.00;;;;;;;-140.72;0.00;52258.97;4950714;28;19914;-75
2022/08/26 08:55:52;;;;;;;0.28;0.17;;;;;;;-140.72;0.00;52256.94;4951899;28;20685;-77
2022/08/26 08:58:20;;;;;;;0.20;0.10;;;;;;;-140.72;0.00;52287.38;4952881;28;20030;-75
2022/08/26 09:00:56;;;;;;;2.08;0.65;;;;;;;-140.72;0.00;52269.13;4953423;28;20519;-76
2022/08/26 09:03:51;;;;;;;0.98;0.10;;;;;;;-140.72;0.00;52232.59;4953583;28;20030;-76
2022/08/26 09:06:19;;;;;;;0.65;0.13;;;;;;;-140.72;0.00;52297.53;4952410;28;20070;-80
2022/08/26 09:08:49;;;;;;;0.28;0.08;;;;;;;-140.72;0.00;52261.00;4952589;28;20039;-77
2022/08/26 09:11:15;;;;;;;2.72;0.30;;;;;;;-140.72;0.00;52267.09;4949845;28;20357;-79
2022/08/26 09:13:48;;;;;;;0.52;0.10;;;;;;;-140.72;0.00;52287.38;4951947;28;20600;-77
2022/08/26 09:16:30;;;;;;;2.20;0.13;;;;;;;-140.72;0.00;52261.00;4951131;28;20027;-78
2022/08/26 09:19:13;;;;;;;0.28;0.10;;;;;;;-140.72;0.00;52293.47;4949909;29;20065;-74
2022/08/26 09:21:38;;;;;;;1.23;0.38;;;;;;;-140.72;0.00;52250.84;4951947;28;20031;-73
2022/08/26 09:24:09;;;;;;;0.00;0.00;;;;;;;-140.72;0.00;52269.13;4950443;28;20256;-73
2022/08/26 09:26:37;;;;;;;0.95;0.30;;;;;;;-140.72;0.00;52238.69;4952165;28;20051;-74
2022/08/26 09:29:18;;;;;;;1.10;0.20;;;;;;;-140.72;0.00;52269.13;4951383;28;20420;-75
2022/08/26 09:31:44;;;;;;;0.93;0.15;;;;;;;-140.72;0.00;52269.13;4940202;28;20086;-73
2022/08/26 09:34:25;;;;;;;0.38;0.20;;;;;;;-140.72;0.00;52238.69;4952461;28;20452;-72
2022/08/26 09:36:56;;;;;;;4.13;0.40;;;;;;;-140.72;0.00;52240.72;4952556;28;20044;-73
2022/08/26 09:39:26;;;;;;;4.03;0.40;;;;;;;-140.72;0.00;52256.94;4953212;28;20034;-73
2022/08/26 09:42:10;;;;;;;1.10;0.47;;;;;;;-140.72;0.00;52224.47;4952988;28;20042;-74
2022/08/26 09:44:50;;;;;;;1.90;0.43;;;;;;;-140.72;0.00;52216.34;4951496;28;20042;-74
2022/08/26 09:47:28;;;;;;;1.10;0.35;;;;;;;-140.72;0.00;52220.41;4953102;28;20073;-74
2022/08/26 09:50:31;;;;;;;1.50;0.52;;;;;;;-140.72;0.00;52230.56;4952362;28;20049;-72
2022/08/26 09:53:13;;;;;;;1.83;0.50;;;;;;;-140.72;0.00;52238.69;4952909;28;20110;-73
2022/08/26 09:56:04;;;;;;;1.58;0.30;;;;;;;-140.72;0.00;52252.88;4952853;28;20337;-73
2022/08/26 09:58:33;;;;;;;0.57;0.20;;;;;;;-140.72;0.00;52224.47;4954404;28;20476;-74
2022/08/26 10:01:05;;;;;;;3.40;0.20;;;;;;;-140.72;0.00;52192.00;4952943;28;20031;-72
2022/08/26 10:03:34;;;;;;;0.75;0.38;;;;;;;-140.72;0.00;52238.69;4952112;28;20155;-74
2022/08/26 10:06:25;;;;;;;3.63;0.45;;;;;;;-140.72;0.00;52261.00;4952611;28;20030;-75
2022/08/26 10:09:01;;;;;;;0.85;0.25;;;;;;;-140.72;0.00;52283.31;4953112;28;20037;-75
2022/08/26 10:11:37;;;;;;;1.27;0.35;;;;;;;-140.72;0.00;52265.06;4951672;28;20419;-74
2022/08/26 10:14:12;;;;;;;0.77;0.30;;;;;;;-140.72;0.00;52258.97;4952720;28;20460;-74
2022/08/26 10:17:06;;;;;;;1.90;0.52;;;;;;;-140.72;0.00;52283.31;4952567;28;20051;-73
2022/08/26 10:19:37;;;;;;;0.85;0.32;;;;;;;-140.72;0.00;52256.94;4950885;28;20429;-74
2022/08/26 10:22:27;;;;;;;1.30;0.47;;;;;;;-140.72;0.00;52252.88;4952617;28;20051;-73
2022/08/26 10:24:55;;;;;;;;;;;;;;;-140.72;0.00;52291.44;4941127;29;20047;-72
2022/08/26 10:27:36;;;;;;;1.65;0.28;;;;;;;-140.72;0.00;52281.28;4951559;28;19956;-75
2022/08/26 10:30:23;;;;;;;2.15;0.60;;;;;;;-140.72;0.00;52281.28;4952703;28;20038;-75
2022/08/26 10:32:59;;;;;;;2.50;0.40;;;;;;;-140.72;0.00;52267.09;4950752;28;20023;-73
2022/08/26 10:35:26;;;;;;;0.30;0.22;;;;;;;-140.72;0.00;52277.22;4950422;28;20400;-72
2022/08/26 10:37:55;;;;;;;1.17;0.50;;;;;;;-140.72;0.00;52258.97;4951318;28;20047;-74
2022/08/26 10:40:23;;;;;;;5.13;0.40;;;;;;;-140.72;0.00;52246.78;4950458;28;20123;-74
2022/08/26 10:43:01;;;;;;;0.80;0.40;;;;;;;-140.72;0.00;52228.53;4952304;28;20086;-74
2022/08/26 10:45:31;;;;;;;0.75;0.40;;;;;;;-140.72;0.00;52232.59;4952398;28;20023;-72
2022/08/26 10:48:05;;;;;;;5.63;0.80;;;;;;;-140.72;0.00;52232.59;4950893;28;20494;-73
2022/08/26 10:50:37;;;;;;;1.77;0.30;;;;;;;-140.72;0.00;52254.91;4952158;28;20015;-73
2022/08/26 10:53:24;;;;;;;3.00;0.57;;;;;;;-140.72;0.00;52228.53;4950872;28;20031;-74
2022/08/26 10:56:10;;;;;;;1.35;0.50;;;;;;;-140.72;0.00;52230.56;4951001;28;20114;-74
2022/08/26 10:58:44;;;;;;;0.65;0.20;;;;;;;-140.72;0.00;52273.19;4951532;28;20388;-73
2022/08/26 11:04:52;;;;;;;1.58;0.73;;;;;;;-140.72;0.00;52224.47;4945873;29;20499;-74
2022/08/26 11:07:39;;;;;;;0.88;0.43;;;;;;;-140.72;0.00;52228.53;4953482;28;20077;-74
2022/08/26 11:10:08;;;;;;;1.02;0.32;;;;;;;-140.72;0.00;52228.53;4950305;28;20039;-72
2022/08/26 11:12:33;;;;;;;0.95;0.30;;;;;;;-140.72;0.00;52228.53;4950806;28;20027;-73
2022/08/26 11:15:12;;;;;;;0.22;0.10;;;;;;;-140.72;0.00;52244.78;4950396;28;20041;-78
2022/08/26 11:17:47;;;;;;;2.13;0.55;;;;;;;-140.72;0.00;52244.78;4952707;28;20090;-82
2022/08/26 11:20:21;;;;;;;2.88;0.82;;;;;;;-140.72;0.00;52222.44;4951513;28;20531;-75
2022/08/26 11:22:47;;;;;;;0.50;0.22;;;;;;;-140.72;0.00;52240.72;4950820;29;20138;-77
2022/08/26 11:25:17;;;;;;;1.08;0.30;;;;;;;-140.72;0.00;52248.81;4951975;28;20023;-83
2022/08/26 11:27:51;;;;;;;0.90;0.35;;;;;;;-140.72;0.00;52277.22;4952339;28;20050;-77
2022/08/26 11:30:18;;;;;;;2.58;0.68;;;;;;;-140.72;0.00;52248.81;4953031;28;20274;-77
2022/08/26 11:32:49;;;;;;;3.17;0.70;;;;;;;-140.72;0.00;52210.28;4953303;28;20035;-80
2022/08/26 11:35:22;;;;;;;2.08;0.77;;;;;;;-140.72;0.00;52208.25;4954577;28;20087;-83
2022/08/26 11:37:55;;;;;;;1.48;0.50;;;;;;;-140.72;0.00;52194.03;4955510;28;20134;-77